Terminal Aerodrome Forecast
Issued by NWS Jackson, MS

Home | Current Version | Previous Version | Text Only | Print | Product List | Glossary On
Versions: 1 2 3 4 5 6 7 8 9 10 11 12 13 14 15
000
FTUS44 KJAN 290500
TAFGLH
TAF
KGLH 290520Z 2906/3006 16010KT P6SM SCT250
     FM290900 19011KT P6SM SCT007 BKN120
     FM291500 23011KT P6SM BKN025
     FM291900 30012KT P6SM BKN030
     FM300000 36013G21KT P6SM SCT030 BKN250=

USA.gov is the U.S. government's official web portal to all federal, state and local government web resources and services.